createdAt,value
2022-09-15T00:01:16.518Z,20.75
2022-09-15T00:03:43.971Z,20.99
2022-09-15T00:06:13.239Z,20.96
2022-09-15T00:08:41.646Z,20.65
2022-09-15T00:13:46.546Z,20.91
2022-09-15T00:16:15.756Z,20.81
2022-09-15T00:18:45.959Z,20.85
2022-09-15T00:21:20.915Z,20.80
2022-09-15T00:23:49.974Z,20.42
2022-09-15T00:26:24.667Z,20.43
2022-09-15T00:28:53.233Z,20.45
2022-09-15T00:31:25.427Z,20.48
2022-09-15T00:33:59.187Z,20.36
2022-09-15T00:36:51.694Z,20.35
2022-09-15T00:39:19.359Z,20.31
2022-09-15T00:41:49.034Z,20.32
2022-09-15T00:47:17.790Z,20.50
2022-09-15T00:49:50.720Z,20.53
2022-09-15T00:58:10.085Z,20.61
2022-09-15T01:00:46.126Z,20.44
2022-09-15T01:03:14.187Z,20.50
2022-09-15T01:05:50.852Z,20.50
2022-09-15T01:08:35.231Z,20.53
2022-09-15T01:11:03.258Z,20.56
2022-09-15T01:13:30.724Z,20.67
2022-09-15T01:20:01.834Z,20.27
2022-09-15T01:31:03.522Z,20.35
2022-09-15T01:34:06.237Z,20.34
2022-09-15T01:36:51.479Z,20.27
2022-09-15T01:39:30.012Z,20.21
2022-09-15T01:42:16.166Z,20.42
2022-09-15T01:44:58.955Z,20.31
2022-09-15T01:47:30.527Z,20.22
2022-09-15T01:50:10.520Z,20.44
2022-09-15T01:52:45.464Z,20.68
2022-09-15T01:55:27.042Z,20.74
2022-09-15T01:57:54.371Z,20.76
2022-09-15T02:00:21.840Z,20.85
2022-09-15T02:03:00.219Z,20.77
2022-09-15T02:05:45.535Z,20.74
2022-09-15T02:08:28.474Z,20.82
2022-09-15T02:11:19.467Z,20.73
2022-09-15T02:14:22.274Z,20.89
2022-09-15T02:16:54.303Z,21.06
2022-09-15T02:19:36.562Z,20.89
2022-09-15T02:22:31.263Z,20.65
2022-09-15T02:27:51.440Z,20.86
2022-09-15T02:30:21.254Z,20.89
2022-09-15T02:32:58.556Z,21.03
2022-09-15T02:35:33.356Z,21.11
2022-09-15T02:38:03.440Z,21.27
2022-09-15T02:40:32.632Z,21.52
2022-09-15T02:43:03.675Z,21.55
2022-09-15T02:45:32.213Z,21.69
2022-09-15T02:48:00.228Z,21.66
2022-09-15T02:50:27.538Z,21.56
2022-09-15T02:52:56.214Z,21.50
2022-09-15T02:55:28.991Z,21.26
2022-09-15T02:57:58.507Z,21.31
2022-09-15T03:00:28.367Z,21.44
2022-09-15T03:02:56.706Z,21.64
2022-09-15T03:05:29.925Z,21.21
2022-09-15T03:07:57.899Z,21.04
2022-09-15T03:10:26.574Z,20.78
2022-09-15T03:12:55.446Z,21.20
2022-09-15T03:15:26.638Z,21.17
2022-09-15T03:17:55.228Z,21.14
2022-09-15T03:20:30.261Z,21.63
2022-09-15T03:22:57.972Z,21.45
2022-09-15T03:25:27.019Z,21.34
2022-09-15T03:27:54.457Z,21.39
2022-09-15T03:30:21.862Z,21.33
2022-09-15T03:32:49.583Z,21.41
2022-09-15T03:35:17.198Z,21.46
2022-09-15T03:37:44.618Z,21.51
2022-09-15T03:40:11.990Z,21.56
2022-09-15T03:42:39.409Z,21.51
2022-09-15T03:45:07.700Z,21.62
2022-09-15T03:47:35.223Z,21.68
2022-09-15T03:50:02.516Z,21.46
2022-09-15T03:52:32.125Z,21.66
2022-09-15T03:54:59.787Z,21.71
2022-09-15T03:57:27.108Z,21.61
2022-09-15T03:59:54.462Z,21.65
2022-09-15T04:02:22.198Z,21.54
2022-09-15T04:04:49.781Z,21.64
2022-09-15T04:07:17.121Z,21.59
2022-09-15T04:09:44.571Z,21.82
2022-09-15T04:12:11.799Z,22.13
2022-09-15T04:14:39.191Z,22.06
2022-09-15T04:17:06.566Z,21.99
2022-09-15T04:19:33.913Z,21.73
2022-09-15T04:22:01.171Z,21.97
2022-09-15T04:24:28.579Z,21.99
2022-09-15T04:26:55.835Z,22.03
2022-09-15T04:29:23.369Z,21.86
2022-09-15T04:31:52.951Z,21.80
2022-09-15T04:34:20.288Z,21.70
2022-09-15T04:36:48.397Z,21.82
2022-09-15T04:39:15.882Z,21.87
2022-09-15T04:41:43.550Z,22.20
2022-09-15T04:44:10.924Z,22.13
2022-09-15T04:46:38.329Z,22.24
2022-09-15T04:49:05.790Z,22.01
2022-09-15T04:51:36.162Z,21.96
2022-09-15T04:54:03.915Z,21.92
2022-09-15T04:56:31.356Z,22.14
2022-09-15T04:59:03.897Z,22.33
2022-09-15T05:01:35.540Z,22.48
2022-09-15T05:04:04.953Z,22.41
2022-09-15T05:06:35.023Z,22.48
2022-09-15T05:09:10.268Z,22.42
2022-09-15T05:11:38.720Z,22.31
2022-09-15T05:14:07.009Z,22.21
2022-09-15T05:16:34.288Z,22.36
2022-09-15T05:19:04.672Z,22.10
2022-09-15T05:21:33.026Z,22.22
2022-09-15T05:24:00.385Z,22.24
2022-09-15T05:26:29.922Z,22.34
2022-09-15T05:28:58.419Z,22.19
2022-09-15T05:31:31.920Z,22.33
2022-09-15T05:34:04.316Z,22.38
2022-09-15T05:36:33.698Z,22.07
2022-09-15T05:39:01.908Z,22.00
2022-09-15T05:41:29.971Z,22.16
2022-09-15T05:43:58.985Z,22.15
2022-09-15T05:46:29.147Z,22.38
2022-09-15T05:48:58.942Z,22.39
2022-09-15T05:51:27.333Z,22.46
2022-09-15T05:53:55.261Z,22.42
2022-09-15T05:56:23.894Z,22.45
2022-09-15T05:58:52.229Z,22.31
2022-09-15T06:01:25.697Z,22.50
2022-09-15T06:03:55.267Z,22.40
2022-09-15T06:06:25.917Z,22.41
2022-09-15T06:08:58.940Z,22.49
2022-09-15T06:11:31.064Z,22.49
2022-09-15T06:14:03.237Z,22.56
2022-09-15T06:16:35.176Z,22.66
2022-09-15T06:19:03.806Z,22.57
2022-09-15T06:21:33.555Z,22.97
2022-09-15T06:24:07.222Z,23.06
2022-09-15T06:26:34.979Z,23.00
2022-09-15T06:29:05.646Z,22.87
2022-09-15T06:31:35.778Z,23.00
2022-09-15T06:34:04.038Z,22.93
2022-09-15T06:36:32.348Z,23.04
2022-09-15T06:39:00.114Z,22.78
2022-09-15T06:41:52.571Z,22.83
2022-09-15T06:44:21.214Z,22.73
2022-09-15T06:46:49.866Z,22.62
2022-09-15T06:49:17.762Z,22.36
2022-09-15T06:51:45.587Z,22.22
2022-09-15T06:54:15.984Z,22.16
2022-09-15T06:56:43.957Z,22.19
2022-09-15T06:59:13.765Z,22.06
2022-09-15T07:01:42.390Z,22.28
2022-09-15T07:04:10.458Z,22.22
2022-09-15T07:06:40.248Z,22.11
2022-09-15T07:09:10.692Z,21.87
2022-09-15T07:11:38.338Z,22.02
2022-09-15T07:14:06.305Z,21.96
2022-09-15T07:16:33.974Z,22.05
2022-09-15T07:19:07.664Z,21.59
2022-09-15T07:21:36.292Z,21.53
2022-09-15T07:24:09.723Z,21.47
2022-09-15T07:26:38.404Z,21.45
2022-09-15T07:29:07.289Z,21.44
2022-09-15T07:31:46.791Z,21.42
2022-09-15T07:34:14.974Z,21.34
2022-09-15T07:36:55.344Z,21.68
2022-09-15T07:39:23.276Z,21.96
2022-09-15T07:41:51.196Z,21.83
2022-09-15T07:44:18.630Z,21.95
2022-09-15T07:46:46.305Z,22.00
2022-09-15T07:49:13.704Z,21.32
2022-09-15T07:51:41.020Z,21.59
2022-09-15T07:54:08.727Z,22.14
2022-09-15T07:56:36.112Z,22.02
2022-09-15T07:59:03.380Z,21.86
2022-09-15T08:01:30.879Z,22.24
2022-09-15T08:03:59.054Z,21.86
2022-09-15T08:06:27.729Z,21.36
2022-09-15T08:09:00.392Z,21.35
2022-09-15T08:11:29.314Z,21.33
2022-09-15T08:13:59.791Z,21.53
2022-09-15T08:16:27.334Z,21.48
2022-09-15T08:18:55.448Z,21.56
2022-09-15T08:21:24.040Z,21.53
2022-09-15T08:23:57.250Z,21.31
2022-09-15T08:26:27.646Z,21.56
2022-09-15T08:28:55.632Z,21.32
2022-09-15T08:31:24.572Z,21.54
2022-09-15T08:33:55.528Z,21.55
2022-09-15T08:36:27.612Z,21.26
2022-09-15T08:38:58.704Z,21.37
2022-09-15T08:41:41.692Z,21.63
2022-09-15T08:55:54.606Z,22.14
2022-09-15T08:58:30.047Z,22.22
2022-09-15T09:21:54.069Z,22.74
2022-09-15T09:24:44.883Z,23.12
2022-09-15T09:27:21.484Z,23.02
2022-09-15T09:30:01.937Z,23.11
2022-09-15T09:36:02.443Z,23.11
2022-09-15T09:38:41.402Z,23.00
2022-09-15T09:43:54.286Z,23.26
2022-09-15T09:46:22.283Z,23.32
2022-09-15T09:49:04.310Z,23.67
2022-09-15T09:54:18.057Z,23.99
2022-09-15T09:56:49.926Z,23.54
2022-09-15T09:59:49.434Z,23.34
2022-09-15T10:02:24.730Z,23.35
2022-09-15T10:05:20.081Z,23.44
2022-09-15T10:07:47.787Z,23.56
2022-09-15T10:10:32.155Z,23.66
2022-09-15T10:13:03.648Z,23.65
2022-09-15T10:15:36.301Z,23.77
2022-09-15T10:18:04.072Z,24.04
2022-09-15T10:20:47.223Z,24.30
2022-09-15T10:26:21.337Z,22.68
2022-09-15T10:29:18.771Z,21.95
2022-09-15T10:31:46.651Z,21.89
2022-09-15T10:34:32.099Z,21.68
2022-09-15T10:40:00.173Z,21.20
2022-09-15T10:45:40.254Z,21.41
2022-09-15T10:48:37.313Z,21.15
2022-09-15T10:51:58.620Z,20.75
2022-09-15T11:09:43.966Z,20.92
2022-09-15T11:39:02.135Z,19.48
2022-09-15T11:41:52.424Z,19.89
2022-09-15T11:58:29.443Z,19.65
2022-09-15T12:04:04.567Z,19.78
2022-09-15T12:09:36.736Z,19.87
2022-09-15T12:12:15.508Z,19.97
2022-09-15T12:14:47.940Z,20.14
2022-09-15T12:28:54.730Z,20.28
2022-09-15T12:36:48.098Z,20.55
2022-09-15T12:45:24.157Z,20.80
2022-09-15T12:48:03.031Z,21.13
2022-09-15T12:50:36.756Z,21.60
2022-09-15T12:53:21.541Z,21.04
2022-09-15T12:55:59.406Z,21.30
2022-09-15T12:58:39.849Z,20.90
2022-09-15T13:06:37.845Z,20.73
2022-09-15T13:11:50.224Z,21.03
2022-09-15T13:14:33.746Z,21.61
2022-09-15T13:17:25.337Z,21.80
2022-09-15T13:19:59.844Z,22.18
2022-09-15T13:22:36.804Z,22.58
2022-09-15T14:16:13.033Z,25.43
2022-09-15T14:22:35.730Z,25.08
2022-09-15T14:25:43.585Z,25.37
2022-09-15T14:29:04.350Z,25.78
2022-09-15T14:32:48.864Z,25.84
2022-09-15T14:35:48.923Z,26.35
2022-09-15T14:38:58.082Z,26.39
2022-09-15T14:41:42.969Z,26.44
2022-09-15T14:47:43.923Z,26.08
2022-09-15T14:51:25.100Z,26.32
2022-09-15T14:54:22.406Z,26.28
2022-09-15T15:00:27.670Z,25.63
2022-09-15T15:10:57.134Z,24.48
2022-09-15T15:18:42.780Z,24.51
2022-09-15T16:07:19.755Z,23.86
2022-09-15T16:09:59.873Z,24.02
2022-09-15T16:12:31.910Z,23.98
2022-09-15T16:15:21.435Z,24.42
2022-09-15T16:18:27.789Z,24.45
2022-09-15T16:22:47.489Z,24.03
2022-09-15T17:01:57.231Z,21.09
2022-09-15T17:18:55.546Z,20.98
2022-09-15T17:21:57.426Z,21.07
2022-09-15T17:29:11.226Z,20.80
2022-09-15T17:32:06.322Z,20.87
2022-09-15T17:34:52.624Z,20.83
2022-09-15T17:37:33.966Z,20.76
2022-09-15T17:43:29.712Z,20.68
2022-09-15T17:46:29.614Z,20.79
2022-09-15T17:49:06.677Z,20.94
2022-09-15T17:51:57.036Z,20.97
2022-09-15T17:54:48.669Z,20.90
2022-09-15T17:58:01.707Z,20.90
2022-09-15T18:01:18.945Z,20.93
2022-09-15T18:04:30.609Z,20.72
2022-09-15T18:10:59.156Z,20.83
2022-09-15T18:14:00.322Z,20.72
2022-09-15T18:17:17.488Z,20.83
2022-09-15T18:20:16.442Z,20.96
2022-09-15T18:23:28.697Z,21.15
2022-09-15T18:26:46.679Z,20.95
2022-09-15T18:29:44.531Z,21.11
2022-09-15T18:32:17.879Z,20.97
2022-09-15T18:34:59.140Z,20.71
2022-09-15T18:37:59.459Z,20.65
2022-09-15T18:40:49.177Z,20.37
2022-09-15T18:44:34.845Z,20.41
2022-09-15T18:47:21.473Z,20.54
2022-09-15T18:50:11.129Z,20.39
2022-09-15T18:53:03.000Z,20.32
2022-09-15T18:55:48.680Z,20.54
2022-09-15T18:58:58.186Z,20.68
2022-09-15T19:01:56.897Z,20.75
2022-09-15T19:04:52.222Z,20.58
2022-09-15T19:07:49.112Z,20.47
2022-09-15T19:10:35.774Z,20.67
2022-09-15T19:13:40.012Z,20.59
2022-09-15T19:16:57.930Z,20.14
2022-09-15T19:20:01.389Z,20.18
2022-09-15T19:22:45.303Z,19.93
2022-09-15T19:26:07.606Z,19.89
2022-09-15T19:28:54.527Z,19.65
2022-09-15T19:31:43.430Z,19.03
2022-09-15T19:34:23.600Z,19.16
2022-09-15T19:37:22.575Z,19.27
2022-09-15T19:40:04.996Z,19.33
2022-09-15T19:42:46.811Z,19.57
2022-09-15T19:45:46.294Z,19.57
2022-09-15T19:48:13.674Z,19.37
2022-09-15T19:50:44.369Z,19.59
2022-09-15T19:53:11.837Z,19.72
2022-09-15T19:55:39.234Z,19.18
2022-09-15T19:58:06.782Z,18.77
2022-09-15T20:00:34.112Z,18.55
2022-09-15T20:03:01.560Z,18.73
2022-09-15T20:05:29.261Z,18.73
2022-09-15T20:07:58.123Z,18.64
2022-09-15T20:10:25.443Z,18.47
2022-09-15T20:12:52.850Z,18.18
2022-09-15T20:15:20.389Z,18.38
2022-09-15T20:17:47.690Z,18.36
2022-09-15T20:20:15.144Z,18.29
2022-09-15T20:22:42.513Z,17.93
2022-09-15T20:25:09.816Z,17.74
2022-09-15T20:27:38.182Z,17.62
2022-09-15T20:30:07.763Z,17.46
2022-09-15T20:32:35.611Z,17.45
2022-09-15T20:35:03.549Z,17.58
2022-09-15T20:37:35.259Z,17.31
2022-09-15T20:40:09.790Z,17.20
2022-09-15T20:42:37.124Z,16.94
2022-09-15T20:45:08.737Z,16.86
2022-09-15T20:47:36.493Z,16.84
2022-09-15T20:50:04.147Z,16.86
2022-09-15T20:52:37.406Z,16.93
2022-09-15T20:55:10.820Z,17.04
2022-09-15T20:57:38.180Z,16.67
2022-09-15T21:00:08.061Z,16.77
2022-09-15T21:02:35.718Z,16.64
2022-09-15T21:05:03.501Z,16.54
2022-09-15T21:07:31.573Z,16.75
2022-09-15T21:09:58.857Z,17.34
2022-09-15T21:12:26.295Z,17.29
2022-09-15T21:14:53.570Z,16.78
2022-09-15T21:17:21.800Z,16.43
2022-09-15T21:19:49.229Z,16.29
2022-09-15T21:22:16.491Z,16.37
2022-09-15T21:24:43.826Z,16.07
2022-09-15T21:27:26.974Z,16.18
2022-09-15T21:29:54.788Z,16.96
2022-09-15T21:32:22.227Z,17.03
2022-09-15T21:34:49.523Z,16.46
2022-09-15T21:37:16.847Z,16.31
2022-09-15T21:39:44.231Z,16.26
2022-09-15T21:42:12.963Z,16.26
2022-09-15T21:44:40.257Z,16.18
2022-09-15T21:47:07.517Z,15.87
2022-09-15T21:49:34.809Z,15.76
2022-09-15T21:52:02.595Z,15.35
2022-09-15T21:54:31.499Z,15.59
2022-09-15T21:56:59.017Z,15.64
2022-09-15T21:59:26.454Z,15.65
2022-09-15T22:01:54.381Z,15.49
2022-09-15T22:04:21.762Z,15.24
2022-09-15T22:06:50.203Z,15.24
2022-09-15T22:09:22.533Z,15.43
2022-09-15T22:11:49.808Z,15.61
2022-09-15T22:14:17.222Z,15.56
2022-09-15T22:16:44.695Z,15.71
2022-09-15T22:19:12.778Z,15.52
2022-09-15T22:21:41.905Z,15.39
2022-09-15T22:24:13.586Z,15.64
2022-09-15T22:26:43.355Z,15.58
2022-09-15T22:29:11.493Z,15.54
2022-09-15T22:31:38.977Z,15.10
2022-09-15T22:34:06.401Z,14.99
2022-09-15T22:36:34.505Z,15.16
2022-09-15T22:39:05.241Z,15.08
2022-09-15T22:41:38.691Z,15.03
2022-09-15T22:44:17.782Z,15.12
2022-09-15T22:46:45.516Z,15.26
2022-09-15T22:49:12.799Z,15.22
2022-09-15T22:51:40.157Z,15.27
2022-09-15T22:54:07.560Z,15.17
2022-09-15T22:56:34.893Z,15.30
2022-09-15T22:59:02.649Z,15.81
2022-09-15T23:01:31.071Z,15.84
2022-09-15T23:04:02.356Z,16.08
2022-09-15T23:06:33.899Z,15.52
2022-09-15T23:09:08.223Z,15.61
2022-09-15T23:11:39.807Z,15.64
2022-09-15T23:14:15.275Z,15.62
2022-09-15T23:16:44.213Z,15.91
2022-09-15T23:19:13.626Z,15.91
2022-09-15T23:21:41.346Z,15.95
2022-09-15T23:24:08.784Z,15.68
2022-09-15T23:26:36.551Z,15.50
2022-09-15T23:29:03.847Z,15.50
2022-09-15T23:31:31.250Z,15.75
2022-09-15T23:33:58.596Z,15.68
2022-09-15T23:36:25.914Z,15.48
2022-09-15T23:38:53.340Z,15.62
2022-09-15T23:41:20.843Z,15.80
2022-09-15T23:43:48.266Z,15.76
2022-09-15T23:46:16.135Z,15.84
2022-09-15T23:48:43.847Z,16.08
2022-09-15T23:51:11.361Z,16.21
2022-09-15T23:53:38.834Z,16.26
2022-09-15T23:56:06.512Z,16.20
2022-09-15T23:58:33.983Z,16.20
